Time;durP1;ratioP1;P1;durP2;ratioP2;P2;SDS_P1;SDS_P2;PMS_P1;PMS_P2;Temp;Humidity;BMP_temperature;BMP_pressure;BME280_temperature;BME280_humidity;BME280_pressure;Samples;Min_cycle;Max_cycle;Signal;HPM_P1;HPM_P2
2023/03/31 00:01:28;;;;;;;10.97;4.60;;;7.60;99.90;;;;;;4930252;29;20114;-89
2023/03/31 00:04:00;;;;;;;13.03;5.10;;;7.50;99.90;;;;;;4929756;29;20031;-89
2023/03/31 00:06:26;;;;;;;13.50;5.03;;;7.60;99.90;;;;;;4930158;29;20042;-89
2023/03/31 00:08:52;;;;;;;10.07;5.17;;;7.50;99.90;;;;;;4930016;29;20052;-89
2023/03/31 00:11:20;;;;;;;10.80;4.83;;;7.50;99.90;;;;;;4930792;29;20084;-89
2023/03/31 00:13:46;;;;;;;11.80;4.73;;;7.50;99.90;;;;;;4930218;29;20027;-89
2023/03/31 00:16:12;;;;;;;13.17;4.90;;;7.60;99.90;;;;;;4930388;29;20434;-90
2023/03/31 00:18:39;;;;;;;12.17;5.03;;;7.60;99.90;;;;;;4930077;29;20119;-89
2023/03/31 00:21:13;;;;;;;11.13;4.90;;;7.50;99.90;;;;;;4930509;29;20372;-89
2023/03/31 00:23:39;;;;;;;7.40;4.67;;;7.60;99.90;;;;;;4913441;29;20443;-90
2023/03/31 00:26:05;;;;;;;8.37;4.63;;;7.60;99.90;;;;;;4929957;29;20046;-89
2023/03/31 00:28:31;;;;;;;15.57;5.50;;;7.60;99.90;;;;;;4930124;29;20055;-89
2023/03/31 00:31:01;;;;;;;12.37;5.03;;;7.60;99.90;;;;;;4930480;29;20031;-89
2023/03/31 00:33:28;;;;;;;13.93;5.73;;;7.60;99.90;;;;;;4928564;29;20040;-89
2023/03/31 00:35:54;;;;;;;7.50;4.93;;;7.70;99.90;;;;;;4929525;29;20028;-89
2023/03/31 00:38:20;;;;;;;10.90;5.03;;;7.70;99.90;;;;;;4912208;29;20510;-90
2023/03/31 00:40:47;;;;;;;9.27;5.47;;;7.70;99.90;;;;;;4930426;29;20483;-89
2023/03/31 00:43:31;;;;;;;11.47;5.53;;;7.80;99.90;;;;;;4913412;29;20024;-89
2023/03/31 00:46:18;;;;;;;9.03;4.80;;;7.90;99.90;;;;;;4929210;29;20066;-89
2023/03/31 00:48:51;;;;;;;9.97;4.53;;;7.90;99.90;;;;;;4929068;29;20471;-90
2023/03/31 00:51:20;;;;;;;9.50;4.70;;;8.00;99.90;;;;;;4929709;29;20154;-90
2023/03/31 00:53:54;;;;;;;9.33;4.37;;;8.00;99.90;;;;;;4929098;29;20035;-89
2023/03/31 00:56:21;;;;;;;10.63;5.20;;;8.10;99.90;;;;;;4928727;29;20058;-90
2023/03/31 00:58:48;;;;;;;9.33;4.53;;;8.10;99.90;;;;;;4928691;29;20032;-89
2023/03/31 01:01:18;;;;;;;13.27;5.20;;;8.10;99.90;;;;;;4929262;29;20051;-90
2023/03/31 01:03:45;;;;;;;8.83;4.67;;;8.20;99.90;;;;;;4928542;29;20031;-90
2023/03/31 01:06:13;;;;;;;13.90;5.33;;;8.20;99.90;;;;;;4929021;29;20536;-90
2023/03/31 01:08:40;;;;;;;10.37;4.87;;;8.20;99.90;;;;;;4929084;29;20036;-90
2023/03/31 01:11:10;;;;;;;8.97;5.10;;;8.20;99.90;;;;;;4928396;29;20031;-90
2023/03/31 01:13:39;;;;;;;14.17;5.90;;;8.20;99.90;;;;;;4928034;29;20058;-90
2023/03/31 01:16:05;;;;;;;12.73;5.03;;;8.30;99.90;;;;;;4928605;29;20095;-90
2023/03/31 01:18:33;;;;;;;13.13;4.63;;;8.30;99.90;;;;;;4928379;29;20039;-89
2023/03/31 01:21:24;;;;;;;10.63;4.93;;;8.30;99.90;;;;;;4929615;29;20043;-89
2023/03/31 01:24:11;;;;;;;9.90;4.63;;;8.30;99.90;;;;;;4928432;29;20055;-89
2023/03/31 01:26:52;;;;;;;11.77;4.40;;;8.30;99.90;;;;;;4929264;29;20119;-89
2023/03/31 01:29:47;;;;;;;12.17;4.77;;;8.30;99.90;;;;;;4929484;29;20027;-89
2023/03/31 01:32:31;;;;;;;11.43;5.30;;;8.20;99.90;;;;;;4908953;29;20047;-89
2023/03/31 01:35:34;;;;;;;12.27;5.47;;;8.20;99.90;;;;;;4928491;29;20042;-89
2023/03/31 01:38:18;;;;;;;14.40;5.47;;;8.20;99.90;;;;;;4928289;29;20046;-89
2023/03/31 01:41:15;;;;;;;10.50;4.67;;;8.10;99.90;;;;;;4928903;29;20111;-88
2023/03/31 01:44:02;;;;;;;13.23;5.27;;;8.10;99.90;;;;;;4928412;29;20375;-90
2023/03/31 01:46:38;;;;;;;10.90;5.30;;;8.20;99.90;;;;;;4929180;29;20042;-90
2023/03/31 01:49:22;;;;;;;11.73;5.37;;;8.10;99.90;;;;;;4928006;29;20043;-90
2023/03/31 01:52:22;;;;;;;9.83;5.07;;;8.20;99.90;;;;;;4928468;29;20036;-90
2023/03/31 01:55:05;;;;;;;10.23;4.60;;;8.20;99.90;;;;;;4927775;29;20038;-90
2023/03/31 01:58:04;;;;;;;12.73;4.87;;;8.30;99.90;;;;;;4928485;29;20036;-89
2023/03/31 02:00:36;;;;;;;7.97;4.60;;;8.30;99.90;;;;;;4929060;29;20165;-90
2023/03/31 02:03:16;;;;;;;11.63;4.97;;;8.30;99.90;;;;;;4927692;29;20090;-89
2023/03/31 02:05:58;;;;;;;8.93;4.80;;;8.30;99.90;;;;;;4928297;29;20027;-89
2023/03/31 02:08:30;;;;;;;11.80;5.73;;;8.30;99.90;;;;;;4927413;29;20040;-89
2023/03/31 02:10:57;;;;;;;11.07;4.90;;;8.30;99.90;;;;;;4928804;29;20059;-90
2023/03/31 02:13:26;;;;;;;9.47;4.40;;;8.30;99.90;;;;;;4927839;29;20039;-90
2023/03/31 02:15:56;;;;;;;9.37;4.77;;;8.30;99.90;;;;;;4927608;29;20031;-89
2023/03/31 02:18:29;;;;;;;14.47;4.50;;;8.30;99.90;;;;;;4910882;29;20031;-89
2023/03/31 02:20:57;;;;;;;8.90;4.80;;;8.30;99.90;;;;;;4928380;29;20079;-89
2023/03/31 02:23:28;;;;;;;12.30;5.10;;;8.40;99.90;;;;;;4926355;28;20036;-90
2023/03/31 02:26:08;;;;;;;9.27;5.37;;;8.40;99.90;;;;;;4926962;29;20035;-89
2023/03/31 02:28:34;;;;;;;12.57;5.27;;;8.40;99.90;;;;;;4926956;29;20954;-89
2023/03/31 02:31:12;;;;;;;9.63;4.77;;;8.40;99.90;;;;;;4927508;29;20035;-90
2023/03/31 02:33:40;;;;;;;10.97;4.50;;;8.40;99.90;;;;;;4926528;29;20165;-89
2023/03/31 02:36:10;;;;;;;14.23;4.90;;;8.40;99.90;;;;;;4927058;29;20051;-89
2023/03/31 02:38:42;;;;;;;13.03;5.60;;;8.40;99.90;;;;;;4926079;29;20070;-89
2023/03/31 02:41:08;;;;;;;8.30;4.73;;;8.40;99.90;;;;;;4926712;29;20042;-88
2023/03/31 02:43:33;;;;;;;9.57;4.43;;;8.40;99.90;;;;;;4926150;29;20031;-88
2023/03/31 02:45:59;;;;;;;11.13;5.27;;;8.50;99.90;;;;;;4926134;29;20644;-88
2023/03/31 02:48:31;;;;;;;9.97;5.30;;;8.50;99.90;;;;;;4909319;29;20027;-87
2023/03/31 02:51:40;;;;;;;10.50;4.53;;;8.60;99.90;;;;;;4926850;29;20035;-88
2023/03/31 02:54:37;;;;;;;11.40;4.43;;;8.80;99.90;;;;;;4925948;29;20051;-88
2023/03/31 02:57:48;;;;;;;14.63;4.90;;;8.90;99.90;;;;;;4904379;29;20036;-88
2023/03/31 03:00:30;;;;;;;11.83;4.87;;;8.90;99.90;;;;;;4926805;29;20040;-88
2023/03/31 03:03:27;;;;;;;12.27;4.63;;;8.90;99.90;;;;;;4925638;29;20127;-89
2023/03/31 03:06:01;;;;;;;11.57;5.00;;;9.00;99.90;;;;;;4926681;29;20161;-88
2023/03/31 03:08:47;;;;;;;11.53;4.67;;;9.10;99.90;;;;;;4925787;29;20406;-87
2023/03/31 03:11:28;;;;;;;12.57;5.40;;;9.20;99.90;;;;;;4926148;29;20043;-88
2023/03/31 03:14:04;;;;;;;10.00;4.77;;;9.30;99.90;;;;;;4926263;29;20559;-88
2023/03/31 03:16:35;;;;;;;10.97;4.80;;;9.40;99.90;;;;;;4926313;29;20024;-88
2023/03/31 03:19:04;;;;;;;10.27;4.67;;;9.40;99.90;;;;;;4925815;29;20071;-88
2023/03/31 03:21:30;;;;;;;15.50;4.63;;;9.40;99.90;;;;;;4926536;29;20071;-89
2023/03/31 03:23:56;;;;;;;11.83;4.63;;;9.40;99.90;;;;;;4924684;29;20043;-88
2023/03/31 03:26:22;;;;;;;16.43;4.70;;;9.30;99.90;;;;;;4926062;29;20436;-88
2023/03/31 03:28:49;;;;;;;11.87;4.80;;;9.30;99.90;;;;;;4925215;29;20086;-87
2023/03/31 03:31:15;;;;;;;11.70;4.13;;;9.30;99.90;;;;;;4926100;29;20032;-88
2023/03/31 03:33:41;;;;;;;13.03;4.63;;;9.30;99.90;;;;;;4926916;29;20032;-88
2023/03/31 03:36:10;;;;;;;13.97;5.30;;;9.30;99.90;;;;;;4929467;29;20027;-88
2023/03/31 03:38:35;;;;;;;17.50;5.80;;;9.20;99.90;;;;;;4929448;29;20096;-89
2023/03/31 03:41:01;;;;;;;11.07;4.27;;;9.30;99.90;;;;;;4929241;29;20488;-88
2023/03/31 03:43:27;;;;;;;16.27;4.93;;;9.30;99.90;;;;;;4928942;29;20487;-88
2023/03/31 03:45:52;;;;;;;15.53;5.40;;;9.20;99.90;;;;;;4929372;29;21477;-88
2023/03/31 03:48:18;;;;;;;12.67;5.13;;;9.10;99.90;;;;;;4929115;29;20122;-88
2023/03/31 03:50:46;;;;;;;16.77;5.17;;;9.00;99.90;;;;;;4930214;29;20055;-88
2023/03/31 03:53:13;;;;;;;12.03;5.37;;;9.00;99.90;;;;;;4928350;29;20575;-89
2023/03/31 03:55:39;;;;;;;9.70;5.17;;;9.00;99.90;;;;;;4929004;29;20082;-88
2023/03/31 03:58:05;;;;;;;11.67;5.07;;;8.90;99.90;;;;;;4911408;29;20032;-88
2023/03/31 04:00:31;;;;;;;16.20;7.37;;;8.90;99.90;;;;;;4929760;29;20032;-88
2023/03/31 04:02:57;;;;;;;13.33;5.60;;;8.90;99.90;;;;;;4928485;29;20039;-88
2023/03/31 04:05:22;;;;;;;11.40;6.37;;;8.80;99.90;;;;;;4928912;29;20930;-88
2023/03/31 04:07:51;;;;;;;14.97;6.43;;;8.80;99.90;;;;;;4928358;29;20040;-88
2023/03/31 04:10:16;;;;;;;15.07;6.30;;;8.70;99.90;;;;;;4929110;29;20136;-88
2023/03/31 04:12:42;;;;;;;9.33;5.13;;;8.70;99.90;;;;;;4912230;29;20114;-87
2023/03/31 04:15:08;;;;;;;15.10;6.20;;;8.60;99.90;;;;;;4928838;29;20381;-84
2023/03/31 04:17:33;;;;;;;15.33;6.50;;;8.60;99.90;;;;;;4928540;29;20426;-84
2023/03/31 04:20:10;;;;;;;10.30;6.17;;;8.60;99.90;;;;;;4928258;29;20092;-83
2023/03/31 04:22:39;;;;;;;11.33;6.30;;;8.50;99.90;;;;;;4928149;29;20039;-83
2023/03/31 04:25:15;;;;;;;17.10;7.50;;;8.50;99.90;;;;;;4927323;29;21618;-83
2023/03/31 04:27:54;;;;;;;17.17;7.73;;;8.50;99.90;;;;;;4928192;29;20038;-84
2023/03/31 04:30:31;;;;;;;11.03;6.30;;;8.40;99.90;;;;;;4928599;29;20553;-84
2023/03/31 04:33:02;;;;;;;13.03;6.43;;;8.40;99.90;;;;;;4927667;29;20039;-84
2023/03/31 04:35:48;;;;;;;16.43;7.63;;;8.40;99.90;;;;;;4928041;29;20038;-84
2023/03/31 04:38:18;;;;;;;14.18;6.85;;;8.40;99.90;;;;;;4927130;29;20056;-84
2023/03/31 04:40:49;;;;;;;15.10;7.73;;;8.40;99.90;;;;;;4928752;29;20040;-84
2023/03/31 04:43:16;;;;;;;15.27;6.40;;;8.40;99.90;;;;;;4911111;29;20750;-84
2023/03/31 04:45:42;;;;;;;14.83;7.20;;;8.30;99.90;;;;;;4921445;28;20130;-84
2023/03/31 04:48:07;;;;;;;21.03;7.50;;;8.30;99.90;;;;;;4927214;29;20382;-84
2023/03/31 04:50:33;;;;;;;16.13;6.87;;;8.30;99.90;;;;;;4911603;29;20036;-84
2023/03/31 04:53:01;;;;;;;21.10;11.37;;;8.30;99.90;;;;;;4927879;29;20545;-84
2023/03/31 04:55:27;;;;;;;18.23;7.97;;;8.30;99.90;;;;;;4927893;29;20174;-84
2023/03/31 04:57:53;;;;;;;12.63;7.60;;;8.30;99.90;;;;;;4926585;29;20483;-84
2023/03/31 05:00:19;;;;;;;17.23;9.20;;;8.30;99.90;;;;;;4927886;29;20038;-84
2023/03/31 05:02:45;;;;;;;16.50;8.80;;;8.30;99.90;;;;;;4921990;29;20030;-88
2023/03/31 05:05:11;;;;;;;14.90;8.23;;;8.30;99.90;;;;;;4925797;29;20032;-84
2023/03/31 05:07:37;;;;;;;19.43;8.60;;;8.20;99.90;;;;;;4926209;29;20059;-85
2023/03/31 05:10:03;;;;;;;17.23;8.70;;;8.20;99.90;;;;;;4926734;29;20059;-84
2023/03/31 05:12:33;;;;;;;14.33;8.43;;;8.20;99.90;;;;;;4926190;29;20130;-84
2023/03/31 05:15:01;;;;;;;17.47;8.83;;;8.20;99.90;;;;;;4925610;29;20066;-85
2023/03/31 05:17:30;;;;;;;14.87;8.57;;;8.20;99.90;;;;;;4925919;29;20252;-84
2023/03/31 05:19:55;;;;;;;16.03;8.07;;;8.20;99.90;;;;;;4925539;29;20425;-85
2023/03/31 05:22:21;;;;;;;17.40;9.37;;;8.20;99.90;;;;;;4923878;29;20106;-84
2023/03/31 05:24:46;;;;;;;18.93;8.43;;;8.20;99.90;;;;;;4925105;29;20181;-84
2023/03/31 05:27:12;;;;;;;22.30;9.83;;;8.20;99.90;;;;;;4926589;29;20039;-84
2023/03/31 05:29:38;;;;;;;17.03;8.60;;;8.20;99.90;;;;;;4927157;29;20028;-84
2023/03/31 05:32:04;;;;;;;18.30;9.50;;;8.20;99.90;;;;;;4926518;29;20059;-84
2023/03/31 05:34:29;;;;;;;22.30;9.67;;;8.10;99.90;;;;;;4924725;29;20059;-85
2023/03/31 05:36:55;;;;;;;15.27;8.27;;;8.10;99.90;;;;;;4925922;29;20035;-83
2023/03/31 05:39:21;;;;;;;20.87;8.80;;;8.10;99.90;;;;;;4924673;29;20050;-84
2023/03/31 05:41:46;;;;;;;16.33;8.97;;;8.10;99.90;;;;;;4926413;29;20171;-84
2023/03/31 05:44:12;;;;;;;12.17;8.50;;;8.10;99.90;;;;;;4925310;29;20055;-84
2023/03/31 05:46:38;;;;;;;18.57;9.20;;;8.10;99.90;;;;;;4926760;29;20510;-85
2023/03/31 05:49:03;;;;;;;22.10;9.80;;;8.10;99.90;;;;;;4926275;29;20055;-84
2023/03/31 05:51:29;;;;;;;21.40;9.70;;;8.20;99.90;;;;;;4926561;29;21414;-86
2023/03/31 05:53:57;;;;;;;20.60;9.37;;;8.20;99.90;;;;;;4921586;29;20024;-85
2023/03/31 05:56:23;;;;;;;17.27;8.83;;;8.20;99.90;;;;;;4924161;29;20071;-85
2023/03/31 05:58:48;;;;;;;17.27;8.10;;;8.20;99.90;;;;;;4923533;29;20111;-83
2023/03/31 06:01:19;;;;;;;16.13;9.00;;;8.20;99.90;;;;;;4925659;29;20035;-85
2023/03/31 06:03:45;;;;;;;19.00;8.30;;;8.30;99.90;;;;;;4925109;29;20727;-85
2023/03/31 06:06:15;;;;;;;13.87;8.23;;;8.30;99.90;;;;;;4923772;29;20031;-85
2023/03/31 06:08:43;;;;;;;17.57;8.70;;;8.40;99.90;;;;;;4924036;29;20498;-85
2023/03/31 06:14:22;;;;;;;12.17;7.67;;;8.40;99.90;;;;;;4910843;29;20027;-85
2023/03/31 06:19:23;;;;;;;16.80;7.95;;;8.50;99.90;;;;;;4951040;23;20098;-85
2023/03/31 06:21:52;;;;;;;14.47;7.37;;;8.50;99.90;;;;;;4920156;28;20123;-85
2023/03/31 06:24:21;;;;;;;16.23;8.30;;;8.60;99.90;;;;;;4919676;28;20027;-85
2023/03/31 06:26:52;;;;;;;16.80;8.20;;;8.60;99.90;;;;;;4920901;28;20038;-85
2023/03/31 06:29:20;;;;;;;14.70;7.37;;;8.60;99.90;;;;;;4920084;28;20068;-84
2023/03/31 06:32:30;;;;;;;13.70;7.23;;;8.70;99.90;;;;;;4920016;28;20035;-84
2023/03/31 06:35:13;;;;;;;15.77;7.67;;;8.70;99.90;;;;;;4920103;28;20038;-84
2023/03/31 06:37:41;;;;;;;14.87;7.57;;;8.80;99.90;;;;;;4920614;28;20039;-84
2023/03/31 06:40:29;;;;;;;14.63;7.43;;;8.90;99.90;;;;;;4919797;28;20497;-84
2023/03/31 06:43:04;;;;;;;14.70;7.27;;;8.80;99.90;;;;;;4920126;28;20056;-84
2023/03/31 06:45:30;;;;;;;13.98;7.55;;;8.90;99.90;;;;;;4921408;28;20035;-84
2023/03/31 06:48:01;;;;;;;13.57;7.53;;;8.90;99.90;;;;;;4932172;28;20101;-85
2023/03/31 06:53:42;;;;;;;13.43;7.47;;;8.90;99.90;;;;;;4920039;28;20035;-85
2023/03/31 06:56:10;;;;;;;12.70;7.50;;;8.90;99.90;;;;;;4921407;28;20087;-85
2023/03/31 06:58:43;;;;;;;11.40;7.53;;;8.90;99.90;;;;;;4918913;28;20034;-85
2023/03/31 07:01:12;;;;;;;14.30;8.10;;;8.90;99.90;;;;;;4919756;28;20027;-84
2023/03/31 07:03:40;;;;;;;13.10;7.70;;;8.90;99.90;;;;;;4919218;28;20066;-84
2023/03/31 07:06:13;;;;;;;19.43;7.00;;;8.90;99.90;;;;;;4920491;28;20104;-84
2023/03/31 07:08:42;;;;;;;14.90;7.73;;;8.80;99.90;;;;;;4921577;28;20039;-85
2023/03/31 07:11:10;;;;;;;17.13;8.53;;;8.80;99.90;;;;;;4924676;28;20028;-84
2023/03/31 07:13:40;;;;;;;16.80;7.60;;;8.80;99.90;;;;;;4924222;28;20623;-84
2023/03/31 07:16:22;;;;;;;15.40;7.90;;;8.80;99.90;;;;;;4941672;28;20086;-84
2023/03/31 07:18:53;;;;;;;13.83;7.63;;;8.80;99.90;;;;;;4923538;28;20043;-84
2023/03/31 07:21:21;;;;;;;17.47;8.10;;;8.80;99.90;;;;;;4939246;28;20107;-85
2023/03/31 07:23:52;;;;;;;19.67;9.53;;;8.70;99.90;;;;;;4922710;28;20035;-85
2023/03/31 07:26:21;;;;;;;15.87;7.90;;;8.70;99.90;;;;;;4923658;28;20821;-84
2023/03/31 07:29:14;;;;;;;15.63;7.83;;;8.70;99.90;;;;;;4940937;28;20027;-85
2023/03/31 07:31:41;;;;;;;17.17;8.47;;;8.60;99.90;;;;;;4935740;28;20039;-85
2023/03/31 07:34:10;;;;;;;19.93;10.93;;;8.70;99.90;;;;;;4940165;28;20038;-85
2023/03/31 07:39:51;;;;;;;21.63;9.30;;;8.70;99.90;;;;;;4943023;28;20074;-88
2023/03/31 07:42:20;;;;;;;15.57;8.53;;;8.70;99.90;;;;;;4925420;28;21126;-88
2023/03/31 07:44:52;;;;;;;21.63;9.73;;;8.70;99.90;;;;;;4926256;28;20426;-87
2023/03/31 07:47:33;;;;;;;22.37;9.73;;;8.70;99.90;;;;;;4940089;28;20075;-88
2023/03/31 07:50:30;;;;;;;18.57;10.03;;;8.70;99.90;;;;;;4923505;28;20027;-87
2023/03/31 07:53:42;;;;;;;19.77;9.13;;;8.70;99.90;;;;;;4934817;28;20051;-88
2023/03/31 07:56:22;;;;;;;18.23;9.83;;;8.80;99.90;;;;;;4919064;28;20039;-88
2023/03/31 07:59:23;;;;;;;19.67;10.90;;;8.80;99.90;;;;;;4924869;28;21490;-88
2023/03/31 08:02:11;;;;;;;17.93;10.23;;;8.90;99.90;;;;;;4921543;28;20167;-88
2023/03/31 08:05:21;;;;;;;15.77;9.10;;;8.90;99.90;;;;;;4941716;28;20035;-88
2023/03/31 08:08:39;;;;;;;18.27;10.10;;;9.00;99.90;;;;;;4923595;28;20483;-88
2023/03/31 08:11:12;;;;;;;14.63;9.13;;;9.20;99.90;;;;;;4918373;28;20028;-89
2023/03/31 08:13:52;;;;;;;19.53;8.83;;;9.40;99.90;;;;;;4925890;28;20478;-89
2023/03/31 08:16:41;;;;;;;18.33;8.20;;;9.50;99.90;;;;;;4924973;28;20175;-88
2023/03/31 08:19:50;;;;;;;13.30;7.77;;;9.60;99.90;;;;;;4922211;28;20558;-88
2023/03/31 08:23:04;;;;;;;16.80;7.77;;;9.60;99.90;;;;;;4864616;29;20113;-88
2023/03/31 08:26:01;;;;;;;;;;;;;;;;;;;;;
2023/03/31 08:29:22;;;;;;;13.03;7.20;;;9.80;99.90;;;;;;4874381;29;20041;-88
2023/03/31 08:32:41;;;;;;;;;;;;;;;;;;;;;
2023/03/31 08:35:52;;;;;;;11.97;7.60;;;10.00;99.90;;;;;;4879027;29;20231;-85
2023/03/31 08:42:22;;;;;;;11.57;5.27;;;10.10;99.90;;;;;;4871456;29;20044;-88
2023/03/31 08:45:30;;;;;;;13.13;5.17;;;10.20;99.90;;;;;;4802392;29;20055;-92
2023/03/31 08:55:11;;;;;;;9.00;4.40;;;10.30;99.90;;;;;;4894821;28;20052;-88
2023/03/31 08:58:23;;;;;;;8.87;3.63;;;10.40;99.90;;;;;;4896032;29;20134;-88
2023/03/31 09:36:41;;;;;;;7.00;3.03;;;12.90;99.90;;;;;;4886892;29;20118;-88
2023/03/31 09:46:43;;;;;;;3.80;2.15;;;13.10;99.90;;;;;;4841390;29;20104;-87
2023/03/31 09:49:53;;;;;;;;;;;;;;;;;;;;;
2023/03/31 09:56:33;;;;;;;6.97;2.25;;;13.70;99.90;;;;;;4838091;29;20921;-87
2023/03/31 09:59:33;;;;;;;6.85;2.65;;;13.90;99.90;;;;;;4821847;29;20112;-86
2023/03/31 10:02:44;;;;;;;5.22;2.20;;;14.00;99.90;;;;;;4837383;29;20174;-88
2023/03/31 10:05:33;;;;;;;3.75;2.10;;;14.10;99.90;;;;;;4847099;29;20045;-86
2023/03/31 10:08:13;;;;;;;4.32;2.30;;;14.30;99.90;;;;;;4856737;29;21388;-91
2023/03/31 10:11:05;;;;;;;5.60;2.47;;;14.40;99.90;;;;;;4892940;29;20037;-90
2023/03/31 10:14:03;;;;;;;4.80;1.98;;;14.70;99.90;;;;;;4864945;29;21078;-89
2023/03/31 10:23:53;;;;;;;4.70;2.10;;;15.30;99.90;;;;;;4885643;29;20036;-89
2023/03/31 10:26:34;;;;;;;6.20;2.20;;;15.30;99.90;;;;;;4874839;29;20041;-89
2023/03/31 10:29:12;;;;;;;6.55;2.80;;;15.50;99.90;;;;;;4886642;29;20060;-89
2023/03/31 10:31:41;;;;;;;5.50;2.50;;;15.30;99.90;;;;;;4892364;29;20047;-88
2023/03/31 10:34:24;;;;;;;7.60;2.25;;;15.10;99.90;;;;;;4900151;29;20032;-91
2023/03/31 10:36:53;;;;;;;5.75;2.20;;;14.90;99.90;;;;;;4893228;29;20139;-93
2023/03/31 10:39:21;;;;;;;5.25;2.85;;;14.80;99.90;;;;;;4907634;29;20059;-76
2023/03/31 11:10:51;;;;;;;6.90;2.75;;;14.60;99.90;;;;;;5112000;23;20078;-94
2023/03/31 11:13:54;;;;;;;;;;;;;;;;;;;;;
2023/03/31 11:17:12;;;;;;;7.30;2.85;;;14.30;99.90;;;;;;4949493;28;20039;-93
2023/03/31 11:19:51;;;;;;;4.78;1.63;;;14.00;99.90;;;;;;4935115;28;20575;-95
2023/03/31 11:22:45;;;;;;;6.78;1.42;;;13.20;99.90;;;;;;4943253;28;20034;-94
2023/03/31 11:25:50;;;;;;;4.03;1.20;;;12.60;99.90;;;;;;4955663;28;20035;-94
2023/03/31 11:28:32;;;;;;;2.33;1.23;;;12.00;99.90;;;;;;4947541;28;20061;-95
2023/03/31 11:32:30;;;;;;;3.80;1.38;;;11.60;99.90;;;;;;4962442;28;20039;-87
2023/03/31 11:35:18;;;;;;;;;;;;;;;;;;;;;
2023/03/31 11:38:12;;;;;;;3.63;1.23;;;11.40;99.90;;;;;;4932059;28;20050;-85
2023/03/31 11:41:11;;;;;;;1.92;1.17;;;11.40;99.90;;;;;;4942374;28;20042;-87
2023/03/31 11:44:02;;;;;;;3.47;1.53;;;11.40;99.90;;;;;;4938767;28;20035;-88
2023/03/31 11:47:12;;;;;;;3.63;1.48;;;11.60;99.90;;;;;;4937938;28;20498;-86
2023/03/31 11:50:01;;;;;;;3.83;1.80;;;11.70;99.90;;;;;;4914749;28;20061;-87
2023/03/31 11:53:22;;;;;;;5.57;1.60;;;11.90;99.90;;;;;;4930759;28;20037;-84
2023/03/31 11:59:32;;;;;;;3.22;1.50;;;12.80;99.90;;;;;;4932691;28;20479;-88
2023/03/31 12:02:44;;;;;;;4.07;1.40;;;13.50;99.90;;;;;;4938991;28;20035;-88
2023/03/31 12:05:20;;;;;;;2.60;1.40;;;14.00;99.90;;;;;;4902515;28;20068;-86
2023/03/31 12:08:03;;;;;;;3.60;1.15;;;14.10;99.90;;;;;;4940331;28;20034;-88
2023/03/31 12:10:54;;;;;;;2.92;1.50;;;14.00;99.90;;;;;;4941236;28;20055;-88
2023/03/31 12:13:31;;;;;;;2.30;1.10;;;13.90;99.90;;;;;;4941006;28;20031;-87
2023/03/31 12:16:20;;;;;;;2.92;1.40;;;13.90;99.90;;;;;;4929693;28;20039;-88
2023/03/31 12:19:26;;;;;;;3.05;1.08;;;13.80;99.90;;;;;;4941726;28;20379;-87
2023/03/31 12:25:21;;;;;;;3.10;1.20;;;13.70;99.90;;;;;;4926974;28;20482;-88
2023/03/31 12:27:55;;;;;;;3.90;1.80;;;13.80;99.90;;;;;;4941419;28;20117;-88
2023/03/31 12:30:33;;;;;;;4.88;1.30;;;14.30;99.90;;;;;;4943047;28;20026;-89
2023/03/31 12:33:53;;;;;;;5.88;1.23;;;14.90;99.90;;;;;;4940076;28;20036;-88
2023/03/31 12:37:00;;;;;;;4.82;1.80;;;15.30;99.90;;;;;;4942038;28;20035;-88
2023/03/31 12:39:51;;;;;;;4.53;1.40;;;15.40;99.90;;;;;;4930376;28;20102;-87
2023/03/31 12:42:35;;;;;;;2.95;1.23;;;14.90;99.90;;;;;;4940744;28;20030;-87
2023/03/31 12:45:53;;;;;;;3.13;1.33;;;14.60;99.90;;;;;;4939660;28;20039;-88
2023/03/31 12:48:51;;;;;;;5.35;2.10;;;14.30;99.90;;;;;;4924601;28;20405;-88
2023/03/31 12:51:40;;;;;;;4.05;1.30;;;14.10;99.90;;;;;;4937546;28;20070;-88
2023/03/31 12:54:30;;;;;;;7.93;1.65;;;14.10;99.90;;;;;;4940959;28;20031;-88
2023/03/31 12:57:02;;;;;;;4.75;1.67;;;14.00;99.90;;;;;;4940752;28;20024;-88
2023/03/31 13:00:09;;;;;;;4.57;1.95;;;14.00;99.90;;;;;;4941372;28;20031;-89
2023/03/31 13:02:34;;;;;;;3.78;1.90;;;13.90;99.90;;;;;;4911990;28;20485;-90
2023/03/31 13:05:35;;;;;;;4.65;1.80;;;13.70;99.90;;;;;;4941335;28;20032;-89
2023/03/31 13:08:11;;;;;;;3.85;1.52;;;13.50;99.90;;;;;;4939386;28;20027;-87
2023/03/31 13:11:01;;;;;;;4.00;1.55;;;13.40;99.90;;;;;;4951062;23;20055;-86
2023/03/31 13:14:25;;;;;;;;;;;;;;;;;;;;;
2023/03/31 13:17:12;;;;;;;2.45;1.05;;;12.90;99.90;;;;;;4909003;29;20042;-81
2023/03/31 13:19:55;;;;;;;2.53;1.00;;;12.70;99.90;;;;;;4933470;28;20186;-82
2023/03/31 13:22:32;;;;;;;4.18;1.23;;;12.50;99.90;;;;;;4932946;28;20040;-83
2023/03/31 13:25:32;;;;;;;4.90;1.70;;;12.30;99.90;;;;;;4932494;29;20050;-80
2023/03/31 13:28:24;;;;;;;3.60;1.10;;;12.60;99.90;;;;;;4933486;28;20027;-88
2023/03/31 13:31:03;;;;;;;3.35;1.10;;;13.30;99.90;;;;;;4918456;29;20123;-87
2023/03/31 13:33:55;;;;;;;3.63;1.75;;;13.90;99.90;;;;;;4932685;28;20073;-83
2023/03/31 13:36:32;;;;;;;3.28;1.00;;;14.30;99.90;;;;;;4918389;29;20450;-95
2023/03/31 13:39:21;;;;;;;3.30;1.30;;;14.60;99.90;;;;;;4933661;29;20043;-87
2023/03/31 13:42:21;;;;;;;3.63;1.15;;;14.70;99.90;;;;;;4915347;29;20042;-86
2023/03/31 13:45:14;;;;;;;3.45;1.10;;;14.90;99.90;;;;;;4933275;28;20028;-87
2023/03/31 13:48:13;;;;;;;4.18;1.30;;;15.30;99.90;;;;;;4934296;29;20038;-86
2023/03/31 13:51:11;;;;;;;4.22;1.08;;;15.10;99.90;;;;;;4933895;28;20028;-86
2023/03/31 13:57:23;;;;;;;7.20;2.05;;;14.50;99.90;;;;;;4927214;28;20042;-85
2023/03/31 14:00:13;;;;;;;1.98;1.00;;;13.90;99.90;;;;;;4917380;29;20035;-85
2023/03/31 14:03:11;;;;;;;1.58;1.00;;;13.70;99.90;;;;;;4935435;28;20361;-85
2023/03/31 14:06:03;;;;;;;2.40;0.90;;;13.40;99.90;;;;;;4934954;29;20032;-85
2023/03/31 14:09:04;;;;;;;4.60;1.20;;;13.10;99.90;;;;;;4897556;29;20072;-85
2023/03/31 14:11:32;;;;;;;3.03;1.10;;;13.00;99.90;;;;;;4933435;28;20089;-85
2023/03/31 14:14:11;;;;;;;2.80;1.00;;;13.00;99.90;;;;;;4929200;28;20079;-87
2023/03/31 14:17:05;;;;;;;2.05;0.98;;;12.90;99.90;;;;;;4930258;28;20031;-81
2023/03/31 14:19:54;;;;;;;2.75;1.17;;;12.90;99.90;;;;;;4933424;29;20063;-80
2023/03/31 14:22:23;;;;;;;2.20;1.05;;;12.90;99.90;;;;;;4933775;29;20234;-87
2023/03/31 14:25:42;;;;;;;2.08;1.15;;;12.90;99.90;;;;;;4931068;29;20545;-86
2023/03/31 14:31:44;;;;;;;4.75;1.70;;;12.90;99.90;;;;;;4851657;29;20037;-85
2023/03/31 14:34:25;;;;;;;5.15;1.35;;;12.80;99.90;;;;;;4850286;29;20449;-85
2023/03/31 14:37:35;;;;;;;7.57;1.33;;;12.50;99.90;;;;;;4855703;29;20032;-87
2023/03/31 14:40:02;;;;;;;7.07;1.30;;;12.20;99.90;;;;;;4841289;29;20057;-86
2023/03/31 14:46:14;;;;;;;4.90;1.47;;;10.60;99.90;;;;;;4865750;28;20137;-89
2023/03/31 14:48:54;;;;;;;2.40;1.20;;;10.00;99.90;;;;;;4914763;29;20039;-90
2023/03/31 14:51:33;;;;;;;2.17;1.03;;;9.60;99.90;;;;;;4931502;29;20031;-89
2023/03/31 14:54:02;;;;;;;2.83;1.03;;;9.30;99.90;;;;;;4915497;28;20479;-91
2023/03/31 14:56:40;;;;;;;3.00;1.10;;;9.20;99.90;;;;;;4931925;29;20042;-87
2023/03/31 14:59:36;;;;;;;1.73;0.80;;;9.10;99.90;;;;;;4932653;29;20558;-91
2023/03/31 15:02:04;;;;;;;2.13;1.08;;;9.10;99.90;;;;;;4935643;28;20062;-90
2023/03/31 15:04:45;;;;;;;10.27;4.20;;;9.10;99.90;;;;;;4918268;29;20051;-89
2023/03/31 15:07:15;;;;;;;1.80;1.10;;;9.20;99.90;;;;;;4937569;29;20475;-89
2023/03/31 15:09:51;;;;;;;4.23;1.63;;;9.50;99.90;;;;;;4936965;29;20133;-89
2023/03/31 15:12:23;;;;;;;3.70;1.20;;;9.90;99.90;;;;;;4936039;29;20038;-87
2023/03/31 15:15:02;;;;;;;2.83;1.10;;;10.20;99.90;;;;;;4918953;29;20035;-88
2023/03/31 15:17:43;;;;;;;2.57;1.27;;;10.40;99.90;;;;;;4936292;29;20027;-89
2023/03/31 15:23:34;;;;;;;1.70;0.90;;;10.90;99.90;;;;;;4925991;29;20043;-88
2023/03/31 15:26:14;;;;;;;2.97;1.20;;;11.10;99.90;;;;;;4917896;29;20134;-88
2023/03/31 15:29:25;;;;;;;4.03;1.23;;;11.20;99.90;;;;;;4933560;28;20031;-86
2023/03/31 15:32:26;;;;;;;;;;;;;;;;;;;;;
2023/03/31 15:34:53;;;;;;;3.60;1.20;;;11.50;99.90;;;;;;4936817;29;20034;-88
2023/03/31 15:37:41;;;;;;;4.90;1.40;;;11.60;99.90;;;;;;4934987;28;20045;-87
2023/03/31 15:40:35;;;;;;;6.55;1.40;;;11.60;99.90;;;;;;4936187;29;20043;-86
2023/03/31 15:43:53;;;;;;;3.87;1.27;;;11.40;99.90;;;;;;4917736;29;20162;-87
2023/03/31 15:46:44;;;;;;;5.53;1.20;;;11.30;99.90;;;;;;4913812;29;20042;-87
2023/03/31 15:49:23;;;;;;;3.57;1.20;;;11.30;99.90;;;;;;4936028;29;20032;-87
2023/03/31 15:51:55;;;;;;;5.90;1.20;;;11.30;99.90;;;;;;4936292;28;20019;-88
2023/03/31 15:54:42;;;;;;;5.67;1.40;;;11.30;99.90;;;;;;4935964;29;20035;-88
2023/03/31 15:57:32;;;;;;;3.60;1.20;;;11.40;99.90;;;;;;4919597;29;20090;-91
2023/03/31 16:00:33;;;;;;;5.63;1.30;;;11.40;99.90;;;;;;4920213;29;20043;-91
2023/03/31 16:03:13;;;;;;;3.50;1.33;;;11.50;99.90;;;;;;4910256;29;20036;-88
2023/03/31 16:05:53;;;;;;;3.50;1.20;;;11.50;99.90;;;;;;4919671;29;20034;-88
2023/03/31 16:08:32;;;;;;;2.88;1.15;;;11.60;99.90;;;;;;4935223;29;20023;-87